createdAt,value
2024-03-13T00:01:54.237Z,38.00
2024-03-13T00:04:20.936Z,34.30
2024-03-13T00:06:47.382Z,39.10
2024-03-13T00:09:13.936Z,36.78
2024-03-13T00:11:40.210Z,38.22
2024-03-13T00:14:06.442Z,35.03
2024-03-13T00:16:32.766Z,40.63
2024-03-13T00:18:59.308Z,33.17
2024-03-13T00:21:25.621Z,35.95
2024-03-13T00:23:51.836Z,37.22
2024-03-13T00:26:18.070Z,40.25
2024-03-13T00:28:44.296Z,36.40
2024-03-13T00:31:10.605Z,39.33
2024-03-13T00:33:36.851Z,34.22
2024-03-13T00:36:03.157Z,41.10
2024-03-13T00:38:29.413Z,31.17
2024-03-13T00:40:55.648Z,32.15
2024-03-13T00:43:21.969Z,32.38
2024-03-13T00:45:48.460Z,33.88
2024-03-13T00:48:14.727Z,40.42
2024-03-13T00:50:41.356Z,35.10
2024-03-13T00:53:07.689Z,35.75
2024-03-13T00:58:00.213Z,33.80
2024-03-13T01:00:26.439Z,37.00
2024-03-13T01:02:52.675Z,35.58
2024-03-13T01:05:18.915Z,33.17
2024-03-13T01:07:48.272Z,33.35
2024-03-13T01:10:14.540Z,35.08
2024-03-13T01:12:40.805Z,28.73
2024-03-13T01:15:07.464Z,33.60
2024-03-13T01:17:33.766Z,30.58
2024-03-13T01:20:00.010Z,33.40
2024-03-13T01:22:26.301Z,34.25
2024-03-13T01:24:52.587Z,36.75
2024-03-13T01:27:18.845Z,31.75
2024-03-13T01:29:45.094Z,36.83
2024-03-13T01:32:11.317Z,34.65
2024-03-13T01:34:37.538Z,37.17
2024-03-13T01:37:03.822Z,34.03
2024-03-13T01:39:30.069Z,33.80
2024-03-13T01:41:56.319Z,38.58
2024-03-13T01:44:22.576Z,37.25
2024-03-13T01:46:48.923Z,35.45
2024-03-13T01:49:20.310Z,39.97
2024-03-13T01:51:49.541Z,38.45
2024-03-13T01:54:16.525Z,32.33
2024-03-13T01:56:43.054Z,34.25
2024-03-13T01:59:09.280Z,32.22
2024-03-13T02:01:35.586Z,33.38
2024-03-13T02:04:01.943Z,33.05
2024-03-13T02:06:28.357Z,39.22
2024-03-13T02:08:54.605Z,39.67
2024-03-13T02:11:20.858Z,37.15
2024-03-13T02:13:47.119Z,33.65
2024-03-13T02:16:13.389Z,29.85
2024-03-13T02:18:39.632Z,32.53
2024-03-13T02:21:05.872Z,35.97
2024-03-13T02:23:32.183Z,37.58
2024-03-13T02:25:58.992Z,35.28
2024-03-13T02:28:31.463Z,37.40
2024-03-13T02:30:57.810Z,34.72
2024-03-13T02:33:24.103Z,33.50
2024-03-13T02:35:50.347Z,32.70
2024-03-13T02:38:16.592Z,36.15
2024-03-13T02:40:42.818Z,34.17
2024-03-13T02:43:09.084Z,37.08
2024-03-13T02:45:35.936Z,36.30
2024-03-13T02:48:02.462Z,31.23
2024-03-13T02:50:28.730Z,33.75
2024-03-13T02:52:55.130Z,30.80
2024-03-13T02:55:21.421Z,32.17
2024-03-13T02:57:47.746Z,31.08
2024-03-13T03:00:14.081Z,31.45
2024-03-13T03:02:40.323Z,34.63
2024-03-13T03:05:06.671Z,35.22
2024-03-13T03:07:33.048Z,31.08
2024-03-13T03:09:59.589Z,30.80
2024-03-13T03:12:25.940Z,33.78
2024-03-13T03:14:52.154Z,32.60
2024-03-13T03:17:18.427Z,33.33
2024-03-13T03:19:44.646Z,29.13
2024-03-13T03:22:10.931Z,37.40
2024-03-13T03:24:37.212Z,29.88
2024-03-13T03:27:03.551Z,35.25
2024-03-13T03:29:29.794Z,33.13
2024-03-13T03:31:56.032Z,39.17
2024-03-13T03:34:22.273Z,34.05
2024-03-13T03:36:48.591Z,43.30
2024-03-13T03:39:14.857Z,39.97
2024-03-13T03:41:41.128Z,37.83
2024-03-13T03:44:07.369Z,32.90
2024-03-13T03:46:33.623Z,33.30
2024-03-13T03:48:59.861Z,31.90
2024-03-13T03:51:27.759Z,38.22
2024-03-13T03:53:54.051Z,31.75
2024-03-13T03:56:20.285Z,31.13
2024-03-13T03:58:46.526Z,38.40
2024-03-13T04:01:12.875Z,34.80
2024-03-13T04:03:39.179Z,37.03
2024-03-13T04:06:05.632Z,37.13
2024-03-13T04:08:31.856Z,36.40
2024-03-13T04:10:58.149Z,37.05
2024-03-13T04:13:24.660Z,40.95
2024-03-13T04:15:51.118Z,38.83
2024-03-13T04:18:17.800Z,37.10
2024-03-13T04:20:44.302Z,36.08
2024-03-13T04:23:10.546Z,37.88
2024-03-13T04:25:36.857Z,34.78
2024-03-13T04:28:03.465Z,36.13
2024-03-13T04:30:29.703Z,34.42
2024-03-13T04:32:56.008Z,33.92
2024-03-13T04:35:22.298Z,42.30
2024-03-13T04:37:48.530Z,41.03
2024-03-13T04:40:14.798Z,41.63
2024-03-13T04:42:41.155Z,41.78
2024-03-13T04:45:07.585Z,40.78
2024-03-13T04:47:35.277Z,41.22
2024-03-13T04:50:02.644Z,38.13
2024-03-13T04:52:28.950Z,42.40
2024-03-13T04:54:55.292Z,43.38
2024-03-13T04:57:21.534Z,36.80
2024-03-13T04:59:47.816Z,32.78
2024-03-13T05:02:14.141Z,37.05
2024-03-13T05:04:40.435Z,36.38
2024-03-13T05:07:06.657Z,40.92
2024-03-13T05:09:32.923Z,45.22
2024-03-13T05:11:59.203Z,41.63
2024-03-13T05:14:25.469Z,39.45
2024-03-13T05:16:51.706Z,37.65
2024-03-13T05:19:17.967Z,33.75
2024-03-13T05:21:44.178Z,40.33
2024-03-13T05:24:10.452Z,40.10
2024-03-13T05:26:36.695Z,46.17
2024-03-13T05:29:02.916Z,42.70
2024-03-13T05:31:29.216Z,40.05
2024-03-13T05:33:55.597Z,42.10
2024-03-13T05:36:21.854Z,45.30
2024-03-13T05:38:48.095Z,42.97
2024-03-13T05:41:14.303Z,40.38
2024-03-13T05:43:40.558Z,39.80
2024-03-13T05:46:06.807Z,34.45
2024-03-13T05:48:33.059Z,45.83
2024-03-13T05:50:59.336Z,38.17
2024-03-13T05:53:25.566Z,43.67
2024-03-13T05:55:51.809Z,47.78
2024-03-13T05:58:18.041Z,43.05
2024-03-13T06:00:44.426Z,50.88
2024-03-13T06:03:10.902Z,50.13
2024-03-13T06:05:37.158Z,50.25
2024-03-13T06:08:03.459Z,51.50
2024-03-13T06:10:31.175Z,46.88
2024-03-13T06:12:57.730Z,61.75
2024-03-13T06:15:23.981Z,47.72
2024-03-13T06:17:50.229Z,60.53
2024-03-13T06:20:16.489Z,52.42
2024-03-13T06:22:42.926Z,53.17
2024-03-13T06:25:09.278Z,54.17
2024-03-13T06:27:35.855Z,56.92
2024-03-13T06:30:02.370Z,64.72
2024-03-13T06:32:28.810Z,58.30
2024-03-13T06:34:55.626Z,68.72
2024-03-13T06:37:25.040Z,60.33
2024-03-13T06:39:51.855Z,64.93
2024-03-13T06:42:18.086Z,65.95
2024-03-13T06:44:44.330Z,69.47
2024-03-13T06:47:10.659Z,66.95
2024-03-13T06:49:36.928Z,67.60
2024-03-13T06:52:03.262Z,67.60
2024-03-13T06:54:29.515Z,60.40
2024-03-13T06:56:55.737Z,62.30
2024-03-13T06:59:21.954Z,54.97
2024-03-13T07:01:48.374Z,62.83
2024-03-13T07:04:14.717Z,69.00
2024-03-13T07:06:40.999Z,60.47
2024-03-13T07:09:07.255Z,54.72
2024-03-13T07:11:33.649Z,58.60
2024-03-13T07:13:59.901Z,58.30
2024-03-13T07:16:26.208Z,54.53
2024-03-13T07:18:52.538Z,52.15
2024-03-13T07:21:18.798Z,54.50
2024-03-13T07:23:45.037Z,58.90
2024-03-13T07:26:11.300Z,48.13
2024-03-13T07:28:37.580Z,46.40
2024-03-13T07:31:03.921Z,53.13
2024-03-13T07:33:30.226Z,53.63
2024-03-13T07:35:56.457Z,52.45
2024-03-13T07:38:22.705Z,48.88
2024-03-13T07:40:48.951Z,49.88
2024-03-13T07:43:15.206Z,52.20
2024-03-13T07:45:41.456Z,43.75
2024-03-13T07:48:07.739Z,41.78
2024-03-13T07:50:34.246Z,45.25
2024-03-13T07:53:00.483Z,49.40
2024-03-13T07:55:26.737Z,50.03
2024-03-13T07:57:52.986Z,46.28
2024-03-13T08:00:19.327Z,52.83
2024-03-13T08:02:45.576Z,48.55
2024-03-13T08:05:11.795Z,44.20
2024-03-13T09:07:44.794Z,35.15
2024-03-13T09:10:11.076Z,29.73
2024-03-13T09:12:37.383Z,35.83
2024-03-13T09:15:03.827Z,31.83
2024-03-13T09:17:30.183Z,34.67
2024-03-13T09:19:56.447Z,31.52
2024-03-13T09:22:22.687Z,31.80
2024-03-13T09:24:48.918Z,31.92
2024-03-13T09:27:15.382Z,29.42
2024-03-13T09:29:41.665Z,29.23
2024-03-13T09:32:09.725Z,31.40
2024-03-13T09:34:38.938Z,32.17
2024-03-13T09:37:07.051Z,33.22
2024-03-13T09:39:33.311Z,34.05
2024-03-13T09:41:59.820Z,27.92
2024-03-13T09:44:29.537Z,29.95
2024-03-13T09:46:57.310Z,33.05
2024-03-13T09:49:24.921Z,32.00
2024-03-13T09:51:51.322Z,31.02
2024-03-13T09:54:17.899Z,27.45
2024-03-13T09:56:44.321Z,27.73
2024-03-13T09:59:10.567Z,26.85
2024-03-13T10:01:41.868Z,26.67
2024-03-13T10:04:10.985Z,29.67
2024-03-13T10:06:39.031Z,25.67
2024-03-13T10:09:05.825Z,27.48
2024-03-13T10:11:33.310Z,29.15
2024-03-13T10:14:00.066Z,29.95
2024-03-13T10:16:27.369Z,26.08
2024-03-13T10:18:54.339Z,23.33
2024-03-13T10:21:24.558Z,21.60
2024-03-13T10:23:51.142Z,21.95
2024-03-13T10:26:18.059Z,27.27
2024-03-13T10:28:44.401Z,28.90
2024-03-13T10:31:10.991Z,26.17
2024-03-13T10:33:37.408Z,28.98
2024-03-13T10:36:03.868Z,28.13
2024-03-13T10:38:30.311Z,27.23
2024-03-13T10:40:58.320Z,32.28
2024-03-13T10:43:28.534Z,21.85
2024-03-13T10:45:54.759Z,26.30
2024-03-13T10:48:21.046Z,21.92
2024-03-13T10:50:50.422Z,24.95
2024-03-13T10:53:17.338Z,23.58
2024-03-13T10:55:43.583Z,24.13
2024-03-13T10:58:19.318Z,29.83
2024-03-13T11:00:46.714Z,24.52
2024-03-13T11:03:13.040Z,28.50
2024-03-13T11:05:39.805Z,26.50
2024-03-13T11:08:10.007Z,30.70
2024-03-13T11:10:36.704Z,20.98
2024-03-13T11:13:06.372Z,25.02
2024-03-13T11:15:35.036Z,24.52
2024-03-13T11:18:02.208Z,20.35
2024-03-13T11:20:36.161Z,22.05
2024-03-13T11:23:22.699Z,23.02
2024-03-13T11:25:49.042Z,24.50
2024-03-13T11:28:35.515Z,22.00
2024-03-13T11:31:01.930Z,22.13
2024-03-13T11:33:28.403Z,22.17
2024-03-13T11:35:55.387Z,22.23
2024-03-13T11:38:22.445Z,22.85
2024-03-13T11:40:49.365Z,26.05
2024-03-13T11:43:22.011Z,22.00
2024-03-13T11:45:48.365Z,19.58
2024-03-13T11:48:15.238Z,22.00
2024-03-13T11:51:00.220Z,21.25
2024-03-13T11:53:26.569Z,18.85
2024-03-13T11:55:56.474Z,26.67
2024-03-13T11:58:22.843Z,21.35
2024-03-13T12:00:49.146Z,24.20
2024-03-13T12:03:15.629Z,19.25
2024-03-13T12:05:42.020Z,21.92
2024-03-13T12:08:13.854Z,21.45
2024-03-13T12:10:40.164Z,22.98
2024-03-13T12:13:07.669Z,21.60
2024-03-13T12:15:35.345Z,21.95
2024-03-13T12:18:01.957Z,18.02
2024-03-13T12:20:28.264Z,21.33
2024-03-13T12:22:54.538Z,20.70
2024-03-13T12:25:20.883Z,20.30
2024-03-13T12:27:47.680Z,19.85
2024-03-13T12:30:14.343Z,19.75
2024-03-13T12:32:40.966Z,18.00
2024-03-13T12:35:10.730Z,15.25
2024-03-13T12:37:37.097Z,18.85
2024-03-13T12:40:04.298Z,14.13
2024-03-13T12:42:30.578Z,14.95
2024-03-13T12:44:56.867Z,14.15
2024-03-13T12:47:23.128Z,14.02
2024-03-13T12:49:49.401Z,15.32
2024-03-13T12:52:16.072Z,15.77
2024-03-13T12:54:42.318Z,18.25
2024-03-13T12:57:11.608Z,14.45
2024-03-13T12:59:46.959Z,13.55
2024-03-13T13:02:14.078Z,16.02
2024-03-13T13:04:40.331Z,16.25
2024-03-13T13:07:07.310Z,17.50
2024-03-13T13:11:59.737Z,17.08
2024-03-13T13:14:25.984Z,16.52
2024-03-13T13:16:52.233Z,19.27
2024-03-13T13:19:18.472Z,16.02
2024-03-13T13:21:44.723Z,16.10
2024-03-13T13:24:10.979Z,14.65
2024-03-13T13:26:37.297Z,17.80
2024-03-13T13:31:32.740Z,13.15
2024-03-13T13:33:59.078Z,15.52
2024-03-13T13:36:25.520Z,14.90
2024-03-13T13:38:51.848Z,14.07
2024-03-13T13:41:18.115Z,17.33
2024-03-13T13:43:44.368Z,15.38
2024-03-13T13:46:10.766Z,13.55
2024-03-13T13:48:37.241Z,14.35
2024-03-13T13:51:03.553Z,17.33
2024-03-13T13:53:29.786Z,16.70
2024-03-13T13:55:56.557Z,16.10
2024-03-13T13:58:22.916Z,19.98
2024-03-13T14:00:49.166Z,15.27
2024-03-13T14:03:15.422Z,18.98
2024-03-13T14:05:44.380Z,16.95
2024-03-13T14:08:10.964Z,15.00
2024-03-13T14:10:37.240Z,11.57
2024-03-13T14:13:03.520Z,15.95
2024-03-13T14:15:29.825Z,14.18
2024-03-13T14:17:56.241Z,14.57
2024-03-13T14:20:23.347Z,15.13
2024-03-13T14:22:50.023Z,12.63
2024-03-13T14:25:16.334Z,14.98
2024-03-13T14:27:42.602Z,17.42
2024-03-13T14:30:09.196Z,15.07
2024-03-13T14:32:35.543Z,20.13
2024-03-13T14:35:07.955Z,14.63
2024-03-13T14:37:35.587Z,15.25
2024-03-13T14:40:01.858Z,14.98
2024-03-13T14:42:32.943Z,16.77
2024-03-13T14:45:00.100Z,15.93
2024-03-13T14:47:26.529Z,18.67
2024-03-13T14:49:53.156Z,17.05
2024-03-13T14:52:19.374Z,17.65
2024-03-13T14:54:45.613Z,15.90
2024-03-13T14:57:11.914Z,17.52
2024-03-13T14:59:38.371Z,15.80
2024-03-13T15:02:04.744Z,16.25
2024-03-13T15:04:31.061Z,16.48
2024-03-13T15:06:57.322Z,13.75
2024-03-13T15:09:23.681Z,17.95
2024-03-13T15:11:50.119Z,19.83
2024-03-13T15:14:16.379Z,19.70
2024-03-13T15:16:42.698Z,18.83
2024-03-13T15:19:09.127Z,16.30
2024-03-13T15:21:35.529Z,16.30
2024-03-13T15:24:01.859Z,20.08
2024-03-13T15:26:28.132Z,17.42
2024-03-13T15:28:57.206Z,19.08
2024-03-13T15:31:23.558Z,16.63
2024-03-13T15:33:49.988Z,19.08
2024-03-13T15:36:16.354Z,19.88
2024-03-13T15:38:42.632Z,18.08
2024-03-13T15:41:08.861Z,17.63
2024-03-13T15:43:35.094Z,17.70
2024-03-13T15:46:02.245Z,21.80
2024-03-13T15:48:28.627Z,20.40
2024-03-13T15:50:54.950Z,20.23
2024-03-13T15:53:21.211Z,20.73
2024-03-13T15:55:47.445Z,22.52
2024-03-13T15:58:13.676Z,16.88
2024-03-13T16:00:39.901Z,19.30
2024-03-13T16:03:06.297Z,21.30
2024-03-13T16:05:32.595Z,22.20
2024-03-13T16:08:07.881Z,20.73
2024-03-13T16:10:34.160Z,19.00
2024-03-13T16:13:00.382Z,19.50
2024-03-13T16:15:26.691Z,24.60
2024-03-13T16:17:52.999Z,21.38
2024-03-13T16:20:19.290Z,18.90
2024-03-13T16:22:45.557Z,23.75
2024-03-13T16:25:12.348Z,25.88
2024-03-13T16:27:38.590Z,21.23
2024-03-13T16:30:05.026Z,24.40
2024-03-13T16:32:31.469Z,24.27
2024-03-13T16:34:57.706Z,23.40
2024-03-13T16:37:23.963Z,25.55
2024-03-13T16:39:50.186Z,22.55
2024-03-13T16:42:16.470Z,30.02
2024-03-13T16:44:42.812Z,27.83
2024-03-13T16:47:10.252Z,23.80
2024-03-13T16:49:36.485Z,22.67
2024-03-13T16:52:02.779Z,25.38
2024-03-13T16:54:29.141Z,24.77
2024-03-13T16:56:55.434Z,24.10
2024-03-13T16:59:21.670Z,21.95
2024-03-13T17:01:47.990Z,26.90
2024-03-13T17:04:14.244Z,26.52
2024-03-13T17:06:40.467Z,30.55
2024-03-13T17:09:06.814Z,28.67
2024-03-13T17:11:33.090Z,29.00
2024-03-13T17:13:59.402Z,30.25
2024-03-13T17:16:25.652Z,28.83
2024-03-13T17:18:51.983Z,28.20
2024-03-13T17:21:18.372Z,30.75
2024-03-13T17:23:44.697Z,30.88
2024-03-13T17:26:10.920Z,24.60
2024-03-13T17:28:37.193Z,28.92
2024-03-13T17:31:03.477Z,31.27
2024-03-13T17:33:29.854Z,29.58
2024-03-13T17:35:56.150Z,26.27
2024-03-13T17:38:22.427Z,26.48
2024-03-13T17:40:48.661Z,29.17
2024-03-13T17:43:14.870Z,26.38
2024-03-13T17:45:41.173Z,28.13
2024-03-13T17:48:07.594Z,29.48
2024-03-13T17:50:33.900Z,27.35
2024-03-13T17:53:00.159Z,26.30
2024-03-13T17:55:26.410Z,26.70
2024-03-13T17:57:52.836Z,21.15
2024-03-13T18:00:19.105Z,25.67
2024-03-13T18:02:45.392Z,30.95
2024-03-13T18:05:11.951Z,30.13
2024-03-13T18:07:38.570Z,28.02
2024-03-13T18:10:04.988Z,28.00
2024-03-13T18:12:31.224Z,29.48
2024-03-13T18:15:00.352Z,33.22
2024-03-13T18:17:26.646Z,29.17
2024-03-13T18:19:52.916Z,30.58
2024-03-13T18:22:19.653Z,31.65
2024-03-13T18:24:45.997Z,29.05
2024-03-13T18:27:12.257Z,27.02
2024-03-13T18:29:38.534Z,29.10
2024-03-13T18:32:04.977Z,32.88
2024-03-13T18:34:34.310Z,28.58
2024-03-13T18:37:00.707Z,35.15
2024-03-13T18:39:27.105Z,35.17
2024-03-13T18:41:53.341Z,33.22
2024-03-13T18:44:19.581Z,32.65
2024-03-13T18:46:45.837Z,32.38
2024-03-13T18:49:12.236Z,34.70
2024-03-13T18:51:38.538Z,33.15
2024-03-13T18:54:04.775Z,31.13
2024-03-13T18:56:31.014Z,32.53
2024-03-13T18:58:57.306Z,31.10
2024-03-13T19:01:23.597Z,33.00
2024-03-13T19:03:50.021Z,32.95
2024-03-13T19:06:16.317Z,29.42
2024-03-13T19:08:42.633Z,30.52
2024-03-13T19:11:18.108Z,33.72
2024-03-13T19:13:47.342Z,36.67
2024-03-13T19:16:13.589Z,33.17
2024-03-13T19:18:40.222Z,35.97
2024-03-13T19:21:06.678Z,29.92
2024-03-13T19:23:32.996Z,32.42
2024-03-13T19:25:59.228Z,34.60
2024-03-13T19:28:25.477Z,28.23
2024-03-13T19:30:51.727Z,34.63
2024-03-13T19:33:18.125Z,33.30
2024-03-13T19:35:44.479Z,32.90
2024-03-13T19:38:10.789Z,32.38
2024-03-13T19:40:37.036Z,33.00
2024-03-13T19:43:03.338Z,37.13
2024-03-13T19:45:29.583Z,41.25
2024-03-13T19:47:55.908Z,40.33
2024-03-13T19:50:22.239Z,34.95
2024-03-13T19:52:48.617Z,33.08
2024-03-13T19:55:14.977Z,37.53
2024-03-13T19:57:41.428Z,38.05
2024-03-13T20:00:08.145Z,42.13
2024-03-13T20:02:34.476Z,34.13
2024-03-13T20:05:00.731Z,35.53
2024-03-13T20:07:27.011Z,34.33
2024-03-13T20:09:53.695Z,27.13
2024-03-13T20:12:20.313Z,32.05
2024-03-13T20:14:46.661Z,28.27
2024-03-13T20:17:12.928Z,28.67
2024-03-13T20:19:39.166Z,28.08
2024-03-13T20:22:05.385Z,28.17
2024-03-13T20:24:31.693Z,32.45
2024-03-13T20:26:57.986Z,26.15
2024-03-13T20:29:24.291Z,32.10
2024-03-13T20:31:50.534Z,26.35
2024-03-13T20:34:16.837Z,26.85
2024-03-13T20:36:43.097Z,29.92
2024-03-13T20:39:09.450Z,35.95
2024-03-13T20:41:35.761Z,22.85
2024-03-13T20:44:02.021Z,26.10
2024-03-13T20:46:28.290Z,30.67
2024-03-13T20:48:54.662Z,24.00
2024-03-13T20:51:20.944Z,26.85
2024-03-13T20:53:47.312Z,19.90
2024-03-13T20:56:13.623Z,22.80
2024-03-13T20:58:39.903Z,23.70
2024-03-13T21:01:06.486Z,19.48
2024-03-13T21:03:32.786Z,20.58
2024-03-13T21:05:59.113Z,21.55
2024-03-13T21:08:25.359Z,22.85
2024-03-13T21:10:51.607Z,22.77
2024-03-13T21:13:17.847Z,27.63
2024-03-13T21:15:50.023Z,19.13
2024-03-13T21:18:23.075Z,21.63
2024-03-13T21:20:49.394Z,24.73
2024-03-13T21:23:15.654Z,24.80
2024-03-13T21:25:41.912Z,24.83
2024-03-13T21:28:08.142Z,21.73
2024-03-13T21:30:34.488Z,21.50
2024-03-13T21:33:00.873Z,21.85
2024-03-13T21:35:27.170Z,22.10
2024-03-13T21:37:53.657Z,23.02
2024-03-13T21:40:19.889Z,23.98
2024-03-13T21:42:46.220Z,19.27
2024-03-13T21:45:12.677Z,25.67
2024-03-13T21:47:38.985Z,21.88
2024-03-13T21:50:05.864Z,22.42
2024-03-13T21:52:32.096Z,24.60
2024-03-13T21:54:58.306Z,22.52
2024-03-13T21:57:24.594Z,21.10
2024-03-13T21:59:50.892Z,28.17
2024-03-13T22:02:17.141Z,29.27
2024-03-13T22:04:43.396Z,25.13
2024-03-13T22:07:09.655Z,33.30
2024-03-13T22:09:36.024Z,27.45
2024-03-13T22:12:02.344Z,26.45
2024-03-13T22:14:28.683Z,24.58
2024-03-13T22:16:54.919Z,21.38
2024-03-13T22:19:21.155Z,23.55
2024-03-13T22:21:47.381Z,22.27
2024-03-13T22:24:13.604Z,19.35
2024-03-13T22:26:39.876Z,23.60
2024-03-13T22:29:06.153Z,21.77
2024-03-13T22:31:32.377Z,21.13
2024-03-13T22:33:58.727Z,24.10
2024-03-13T22:36:25.059Z,23.65
2024-03-13T22:38:51.376Z,18.60
2024-03-13T22:41:17.935Z,19.75
2024-03-13T22:43:44.143Z,20.60
2024-03-13T22:46:10.379Z,20.83
2024-03-13T22:48:36.661Z,20.92
2024-03-13T22:51:02.976Z,17.90
2024-03-13T22:53:29.250Z,20.20
2024-03-13T22:55:55.473Z,18.13
2024-03-13T22:58:21.749Z,26.17
2024-03-13T23:00:47.979Z,19.05
2024-03-13T23:03:14.224Z,19.65
2024-03-13T23:05:40.818Z,16.73
2024-03-13T23:08:07.044Z,18.83
2024-03-13T23:10:33.294Z,21.13
2024-03-13T23:12:59.543Z,18.17
2024-03-13T23:15:25.866Z,22.30
2024-03-13T23:17:52.370Z,18.98
2024-03-13T23:20:18.651Z,22.10
2024-03-13T23:22:44.949Z,18.92
2024-03-13T23:25:11.533Z,19.50
2024-03-13T23:27:38.075Z,22.02
2024-03-13T23:30:04.991Z,15.55
2024-03-13T23:32:31.330Z,20.35
2024-03-13T23:34:57.586Z,18.38
2024-03-13T23:37:23.854Z,17.65
2024-03-13T23:39:50.151Z,16.75
2024-03-13T23:42:16.917Z,17.10
2024-03-13T23:44:43.419Z,19.75
2024-03-13T23:47:10.242Z,17.10
2024-03-13T23:49:37.325Z,19.13
2024-03-13T23:52:03.638Z,23.33
2024-03-13T23:54:29.920Z,18.40
2024-03-13T23:56:56.467Z,16.75
2024-03-13T23:59:22.685Z,15.65
